Time;durP1;ratioP1;P1;durP2;ratioP2;P2;SDS_P1;SDS_P2;PMS_P1;PMS_P2;Temp;Humidity;BMP_temperature;BMP_pressure;BME280_temperature;BME280_humidity;BME280_pressure;Samples;Min_cycle;Max_cycle;Signal;HPM_P1;HPM_P2
2021/11/21 00:00:16;;;;;;;27.20;17.20;;;9.00;99.90;;;;;;5055380;28;20484;-85
2021/11/21 00:02:43;;;;;;;29.00;18.23;;;9.00;99.90;;;;;;5054544;28;20504;-86
2021/11/21 00:05:14;;;;;;;32.43;19.20;;;9.00;99.90;;;;;;5055992;28;20463;-85
2021/11/21 00:07:45;;;;;;;33.67;18.67;;;9.00;99.90;;;;;;5054181;28;20492;-86
2021/11/21 00:10:12;;;;;;;31.93;19.30;;;9.00;99.90;;;;;;5055960;28;20476;-85
2021/11/21 00:12:39;;;;;;;40.03;19.20;;;8.80;99.90;;;;;;5055478;28;20460;-85
2021/11/21 00:15:07;;;;;;;31.87;18.37;;;8.80;99.90;;;;;;5043729;28;20544;-85
2021/11/21 00:17:34;;;;;;;28.67;16.77;;;8.70;99.90;;;;;;5055362;28;20540;-85
2021/11/21 00:20:02;;;;;;;28.60;18.33;;;8.80;99.90;;;;;;5053985;28;20956;-84
2021/11/21 00:22:34;;;;;;;34.60;19.27;;;8.80;99.90;;;;;;5072348;22;20498;-84
2021/11/21 00:25:04;;;;;;;37.33;21.93;;;8.80;99.90;;;;;;5075669;28;21028;-84
2021/11/21 00:27:31;;;;;;;35.07;19.70;;;8.70;99.90;;;;;;5077573;28;20823;-85
2021/11/21 00:29:58;;;;;;;37.57;21.97;;;8.70;99.90;;;;;;5075197;28;20435;-84
2021/11/21 00:32:25;;;;;;;33.90;18.47;;;8.60;99.90;;;;;;5056614;28;21049;-87
2021/11/21 00:34:52;;;;;;;41.63;21.67;;;8.60;99.90;;;;;;5035509;28;20448;-85
2021/11/21 00:37:19;;;;;;;43.50;22.20;;;8.60;99.90;;;;;;5052555;28;20502;-86
2021/11/21 00:39:46;;;;;;;40.63;21.43;;;8.50;99.90;;;;;;5053642;28;20456;-85
2021/11/21 00:42:15;;;;;;;42.00;24.20;;;8.50;99.90;;;;;;5041483;28;20469;-85
2021/11/21 00:44:42;;;;;;;40.07;22.63;;;8.50;99.90;;;;;;5054790;28;20509;-86
2021/11/21 00:47:10;;;;;;;37.97;20.50;;;8.50;99.90;;;;;;5056371;28;20460;-87
2021/11/21 00:49:37;;;;;;;37.83;22.23;;;8.50;99.90;;;;;;5071849;28;20471;-86
2021/11/21 00:52:04;;;;;;;46.40;23.40;;;8.60;99.90;;;;;;5052586;28;20758;-86
2021/11/21 00:54:45;;;;;;;38.87;21.43;;;8.40;99.90;;;;;;5057792;28;20452;-84
2021/11/21 00:57:13;;;;;;;36.67;20.50;;;8.30;99.90;;;;;;5054482;28;20455;-86
2021/11/21 00:59:40;;;;;;;40.37;22.33;;;8.30;99.90;;;;;;5054047;28;20459;-86
2021/11/21 01:02:09;;;;;;;32.20;19.90;;;8.30;99.90;;;;;;5049365;28;20485;-86
2021/11/21 01:04:37;;;;;;;38.90;21.67;;;8.30;99.90;;;;;;5054068;28;20529;-86
2021/11/21 01:07:05;;;;;;;36.70;20.77;;;8.20;99.90;;;;;;5052881;28;20482;-87
2021/11/21 01:09:34;;;;;;;41.83;22.77;;;8.30;99.90;;;;;;5053806;28;20451;-85
2021/11/21 01:12:01;;;;;;;32.93;20.90;;;8.30;99.90;;;;;;5040966;28;20486;-86
2021/11/21 01:14:30;;;;;;;36.87;20.73;;;8.30;99.90;;;;;;5052946;28;20455;-87
2021/11/21 01:16:57;;;;;;;35.23;21.33;;;8.30;99.90;;;;;;5053503;28;20453;-84
2021/11/21 01:19:24;;;;;;;45.47;24.20;;;8.30;99.90;;;;;;5053291;28;20452;-86
2021/11/21 01:21:51;;;;;;;39.00;21.40;;;8.20;99.90;;;;;;5051119;28;20882;-86
2021/11/21 01:24:18;;;;;;;47.07;23.97;;;8.30;99.90;;;;;;5052825;28;20483;-86
2021/11/21 01:26:45;;;;;;;37.03;21.50;;;8.30;99.90;;;;;;5052947;28;20978;-86
2021/11/21 01:29:12;;;;;;;37.67;20.90;;;8.30;99.90;;;;;;5056508;28;20448;-85
2021/11/21 01:31:41;;;;;;;35.03;20.37;;;8.30;99.90;;;;;;5072537;28;20475;-83
2021/11/21 01:34:08;;;;;;;42.70;22.93;;;8.20;99.90;;;;;;5054616;28;20578;-86
2021/11/21 01:36:35;;;;;;;41.83;21.73;;;8.30;99.90;;;;;;5053031;28;20454;-84
2021/11/21 01:39:02;;;;;;;37.70;22.20;;;8.40;99.90;;;;;;5053387;28;20452;-84
2021/11/21 01:41:29;;;;;;;43.67;22.90;;;8.40;99.90;;;;;;5041798;28;20452;-86
2021/11/21 01:43:55;;;;;;;41.53;24.93;;;8.40;99.90;;;;;;5052463;28;20492;-85
2021/11/21 01:46:32;;;;;;;41.30;22.03;;;8.40;99.90;;;;;;5052333;28;20463;-85
2021/11/21 01:49:00;;;;;;;45.27;23.40;;;8.40;99.90;;;;;;5051387;28;20462;-85
2021/11/21 01:51:27;;;;;;;41.03;23.07;;;8.40;99.90;;;;;;5044756;28;21015;-86
2021/11/21 01:53:54;;;;;;;47.33;25.83;;;8.40;99.90;;;;;;5052500;28;20441;-86
2021/11/21 01:56:21;;;;;;;44.33;22.83;;;8.40;99.90;;;;;;5053781;28;20539;-85
2021/11/21 01:58:47;;;;;;;42.47;23.53;;;8.40;99.90;;;;;;5053834;28;20458;-85
2021/11/21 02:01:14;;;;;;;36.70;21.47;;;8.40;99.90;;;;;;5050704;28;20965;-87
2021/11/21 02:03:41;;;;;;;46.57;23.03;;;8.30;99.90;;;;;;5051865;28;20484;-85
2021/11/21 02:06:09;;;;;;;51.10;28.03;;;8.30;99.90;;;;;;5053334;28;20448;-86
2021/11/21 02:08:36;;;;;;;40.60;22.80;;;8.20;99.90;;;;;;5052746;28;20467;-86
2021/11/21 02:11:04;;;;;;;42.03;22.60;;;8.30;99.90;;;;;;5052396;28;20451;-84
2021/11/21 02:13:31;;;;;;;45.10;26.10;;;8.30;99.90;;;;;;5058057;28;20498;-86
2021/11/21 02:15:58;;;;;;;34.10;21.53;;;8.30;99.90;;;;;;5058115;28;20455;-86
2021/11/21 02:18:25;;;;;;;42.80;22.70;;;8.30;99.90;;;;;;5058040;28;20447;-86
2021/11/21 02:20:54;;;;;;;46.00;24.20;;;8.30;99.90;;;;;;5058320;28;20451;-85
2021/11/21 02:23:23;;;;;;;39.13;21.97;;;8.30;99.90;;;;;;5058978;28;20578;-86
2021/11/21 02:25:51;;;;;;;45.53;22.77;;;8.30;99.90;;;;;;5062832;28;20448;-85
2021/11/21 02:28:18;;;;;;;43.20;24.50;;;8.30;99.90;;;;;;5078239;28;20448;-84
2021/11/21 02:30:46;;;;;;;36.30;19.30;;;8.30;99.90;;;;;;5066342;28;20457;-84
2021/11/21 02:33:16;;;;;;;35.53;21.20;;;8.30;99.90;;;;;;5070146;28;20558;-85
2021/11/21 02:35:45;;;;;;;43.67;24.23;;;8.30;99.90;;;;;;5076295;28;20450;-85
2021/11/21 02:38:16;;;;;;;35.83;22.10;;;8.30;99.90;;;;;;5062449;28;20454;-86
2021/11/21 02:40:44;;;;;;;33.93;20.13;;;8.30;99.90;;;;;;5051431;28;20452;-85
2021/11/21 02:43:11;;;;;;;35.63;20.67;;;8.30;99.90;;;;;;5047565;28;20471;-83
2021/11/21 02:45:38;;;;;;;32.47;19.37;;;8.30;99.90;;;;;;5057987;28;20460;-85
2021/11/21 02:48:05;;;;;;;35.57;20.93;;;8.30;99.90;;;;;;5056221;28;20454;-83
2021/11/21 02:50:32;;;;;;;33.87;20.63;;;8.30;99.90;;;;;;5055079;28;20461;-84
2021/11/21 02:53:00;;;;;;;35.37;21.47;;;8.40;99.90;;;;;;5056801;28;20482;-83
2021/11/21 02:55:30;;;;;;;31.70;19.17;;;8.30;99.90;;;;;;5053357;28;20490;-84
2021/11/21 02:57:58;;;;;;;33.67;19.67;;;8.30;99.90;;;;;;5058101;28;20452;-84
2021/11/21 03:00:25;;;;;;;36.07;21.90;;;8.20;99.90;;;;;;5055655;28;20465;-85
2021/11/21 03:02:52;;;;;;;33.23;19.57;;;8.20;99.90;;;;;;5057615;28;20471;-84
2021/11/21 03:05:20;;;;;;;31.90;20.03;;;8.20;99.90;;;;;;5055366;28;20490;-85
2021/11/21 03:07:48;;;;;;;37.60;21.30;;;8.30;99.90;;;;;;5055463;28;20457;-85
2021/11/21 03:10:18;;;;;;;35.17;21.20;;;8.30;99.90;;;;;;5050491;28;20455;-85
2021/11/21 03:12:48;;;;;;;40.50;22.57;;;8.30;99.90;;;;;;5035521;28;20535;-85
2021/11/21 03:15:15;;;;;;;40.97;22.80;;;8.40;99.90;;;;;;5041820;28;20468;-85
2021/11/21 03:17:43;;;;;;;39.57;23.13;;;8.30;99.90;;;;;;5055230;28;20787;-85
2021/11/21 03:20:11;;;;;;;40.47;24.37;;;8.40;99.90;;;;;;5053227;28;20492;-83
2021/11/21 03:22:38;;;;;;;37.90;24.63;;;8.30;99.90;;;;;;5038900;28;20483;-84
2021/11/21 03:25:06;;;;;;;42.60;23.90;;;8.30;99.90;;;;;;5057448;28;20545;-84
2021/11/21 03:27:32;;;;;;;37.70;20.90;;;8.20;99.90;;;;;;5057442;28;20448;-84
2021/11/21 03:30:01;;;;;;;40.40;23.07;;;8.30;99.90;;;;;;5057795;28;20530;-82
2021/11/21 03:32:28;;;;;;;39.87;21.27;;;8.30;99.90;;;;;;5052984;28;20468;-84
2021/11/21 03:34:55;;;;;;;46.73;24.47;;;8.30;99.90;;;;;;5074738;28;20511;-84
2021/11/21 03:37:21;;;;;;;44.60;25.20;;;8.30;99.90;;;;;;5056324;28;21018;-84
2021/11/21 03:39:49;;;;;;;36.77;21.23;;;8.20;99.90;;;;;;5055820;28;20452;-84
2021/11/21 03:42:15;;;;;;;38.27;23.30;;;8.20;99.90;;;;;;5055249;28;21035;-85
2021/11/21 03:44:42;;;;;;;46.57;23.83;;;8.20;99.90;;;;;;5058513;28;20483;-84
2021/11/21 03:47:11;;;;;;;37.37;21.33;;;8.20;99.90;;;;;;5064395;28;20465;-84
2021/11/21 03:49:38;;;;;;;44.27;23.80;;;8.20;99.90;;;;;;5054809;28;20459;-84
2021/11/21 03:52:06;;;;;;;62.77;26.93;;;8.20;99.90;;;;;;5054490;28;20566;-85
2021/11/21 03:54:33;;;;;;;55.97;25.63;;;8.20;99.90;;;;;;5055710;28;20964;-85
2021/11/21 03:56:59;;;;;;;45.87;27.30;;;8.20;99.90;;;;;;5055969;28;20472;-83
2021/11/21 03:59:26;;;;;;;37.87;22.83;;;8.20;99.90;;;;;;5055239;28;20455;-84
2021/11/21 04:01:54;;;;;;;42.43;23.63;;;8.30;99.90;;;;;;5054555;28;20472;-85
2021/11/21 04:04:24;;;;;;;41.07;23.20;;;8.20;99.90;;;;;;5056175;28;20541;-83
2021/11/21 04:06:51;;;;;;;42.80;24.10;;;8.20;99.90;;;;;;5042760;28;20499;-85
2021/11/21 04:09:18;;;;;;;39.83;24.27;;;8.20;99.90;;;;;;5053915;28;20443;-84
2021/11/21 04:11:45;;;;;;;45.87;24.93;;;8.30;99.90;;;;;;5052139;28;21070;-84
2021/11/21 04:14:11;;;;;;;36.50;21.17;;;8.30;99.90;;;;;;5054477;28;20466;-86
2021/11/21 04:16:38;;;;;;;36.43;20.27;;;8.30;99.90;;;;;;5054970;28;20455;-83
2021/11/21 04:19:06;;;;;;;31.50;20.20;;;8.30;99.90;;;;;;5054375;28;20450;-86
2021/11/21 04:21:34;;;;;;;35.27;21.40;;;8.30;99.90;;;;;;5052724;28;20491;-84
2021/11/21 04:24:01;;;;;;;40.37;21.97;;;8.20;99.90;;;;;;5053649;28;20480;-86
2021/11/21 04:26:28;;;;;;;33.93;19.40;;;8.30;99.90;;;;;;5052801;28;20515;-86
2021/11/21 04:28:55;;;;;;;35.90;20.47;;;8.30;99.90;;;;;;5051469;28;20460;-84
2021/11/21 04:31:22;;;;;;;36.23;20.17;;;8.20;99.90;;;;;;5049174;28;20964;-85
2021/11/21 04:33:49;;;;;;;31.07;17.17;;;8.20;99.90;;;;;;5055921;28;20462;-84
2021/11/21 04:36:16;;;;;;;33.23;19.10;;;8.20;99.90;;;;;;5053209;28;20974;-86
2021/11/21 04:38:44;;;;;;;37.07;20.47;;;8.30;99.90;;;;;;5052816;28;20456;-84
2021/11/21 04:41:12;;;;;;;37.93;19.80;;;8.20;99.90;;;;;;5052938;28;20455;-85
2021/11/21 04:43:38;;;;;;;31.47;18.33;;;8.20;99.90;;;;;;5052879;28;20471;-85
2021/11/21 04:46:05;;;;;;;31.20;17.20;;;8.20;99.90;;;;;;5054368;28;20448;-85
2021/11/21 04:48:32;;;;;;;30.20;17.03;;;8.30;99.90;;;;;;5054118;28;20444;-85
2021/11/21 04:50:59;;;;;;;33.73;18.97;;;8.30;99.90;;;;;;5037046;28;21141;-86
2021/11/21 04:53:26;;;;;;;30.00;16.60;;;8.30;99.90;;;;;;5057929;28;20464;-86
2021/11/21 04:55:55;;;;;;;42.37;21.47;;;8.30;99.90;;;;;;5063557;28;20454;-81
2021/11/21 04:58:22;;;;;;;42.10;22.77;;;8.20;99.90;;;;;;5058036;28;20444;-79
2021/11/21 05:00:49;;;;;;;45.57;23.33;;;8.20;99.90;;;;;;5057224;28;20967;-81
2021/11/21 05:03:16;;;;;;;40.40;22.30;;;8.20;99.90;;;;;;5058175;28;20472;-80
2021/11/21 05:05:42;;;;;;;40.70;22.80;;;8.20;99.90;;;;;;5058730;28;20476;-80
2021/11/21 05:08:10;;;;;;;38.40;20.63;;;8.30;99.90;;;;;;5058643;28;20455;-82
2021/11/21 05:10:37;;;;;;;38.43;20.67;;;8.30;99.90;;;;;;5058569;28;20459;-80
2021/11/21 05:13:05;;;;;;;40.40;21.87;;;8.30;99.90;;;;;;5060239;28;20475;-81
2021/11/21 05:15:32;;;;;;;34.53;19.03;;;8.30;99.90;;;;;;5058903;28;20465;-77
2021/11/21 05:17:58;;;;;;;33.17;19.90;;;8.60;99.90;;;;;;5058037;28;20809;-78
2021/11/21 05:20:25;;;;;;;34.57;19.80;;;8.90;99.90;;;;;;5054199;28;20449;-78
2021/11/21 05:22:52;;;;;;;34.60;21.40;;;9.20;99.90;;;;;;5056762;28;20482;-78
2021/11/21 05:25:19;;;;;;;32.57;17.80;;;9.10;99.90;;;;;;5056350;28;20538;-80
2021/11/21 05:27:48;;;;;;;37.20;20.87;;;9.20;99.90;;;;;;5056398;28;20456;-77
2021/11/21 05:30:17;;;;;;;28.27;17.30;;;9.30;99.90;;;;;;5054105;28;20441;-80
2021/11/21 05:32:44;;;;;;;38.63;22.50;;;9.50;99.90;;;;;;5063264;28;20472;-80
2021/11/21 05:35:13;;;;;;;40.40;22.93;;;9.10;99.90;;;;;;5063793;28;20449;-79
2021/11/21 05:37:40;;;;;;;35.53;20.87;;;9.00;99.90;;;;;;5064619;28;20482;-79
2021/11/21 05:40:10;;;;;;;42.50;22.93;;;8.90;99.90;;;;;;5052591;28;20521;-79
2021/11/21 05:42:38;;;;;;;35.93;20.80;;;8.80;99.90;;;;;;5054375;28;20501;-79
2021/11/21 05:45:06;;;;;;;36.23;20.23;;;8.70;99.90;;;;;;5063313;28;20494;-79
2021/11/21 05:47:34;;;;;;;47.47;25.63;;;8.60;99.90;;;;;;5061769;28;20454;-80
2021/11/21 05:50:01;;;;;;;43.93;23.37;;;8.60;99.90;;;;;;5054062;28;20469;-78
2021/11/21 05:52:28;;;;;;;40.53;22.07;;;8.60;99.90;;;;;;5062645;28;20469;-79
2021/11/21 05:54:55;;;;;;;44.07;24.77;;;8.50;99.90;;;;;;5062544;28;20448;-79
2021/11/21 05:57:22;;;;;;;44.20;22.00;;;8.50;99.90;;;;;;5060476;28;20692;-79
2021/11/21 05:59:49;;;;;;;40.50;24.60;;;8.60;99.90;;;;;;5060105;28;20452;-79
2021/11/21 06:02:16;;;;;;;42.07;23.47;;;8.60;99.90;;;;;;5061925;28;20468;-79
2021/11/21 06:04:44;;;;;;;42.03;23.70;;;8.60;99.90;;;;;;5062616;28;20921;-80
2021/11/21 06:07:10;;;;;;;41.07;23.00;;;8.60;99.90;;;;;;5061932;28;20475;-79
2021/11/21 06:09:37;;;;;;;42.47;23.50;;;8.50;99.90;;;;;;5061784;28;20455;-79
2021/11/21 06:12:05;;;;;;;39.37;21.87;;;8.50;99.90;;;;;;5056940;28;20506;-79
2021/11/21 06:14:32;;;;;;;44.13;23.63;;;8.50;99.90;;;;;;5063019;28;20445;-79
2021/11/21 06:17:00;;;;;;;41.30;22.80;;;8.50;99.90;;;;;;5057939;28;20992;-78
2021/11/21 06:19:26;;;;;;;44.43;24.13;;;8.50;99.90;;;;;;5059674;28;20454;-79
2021/11/21 06:21:55;;;;;;;43.53;24.37;;;8.50;99.90;;;;;;5063301;28;21017;-78
2021/11/21 06:24:22;;;;;;;43.23;23.20;;;8.50;99.90;;;;;;5064368;28;20964;-79
2021/11/21 06:26:49;;;;;;;43.70;22.60;;;8.50;99.90;;;;;;5064955;28;20458;-79
2021/11/21 06:29:17;;;;;;;41.47;22.10;;;8.50;99.90;;;;;;5062902;28;20447;-79
2021/11/21 06:31:44;;;;;;;45.93;22.80;;;8.60;99.90;;;;;;5048863;28;20463;-79
2021/11/21 06:34:11;;;;;;;44.37;23.37;;;8.70;99.90;;;;;;5065918;28;20449;-78
2021/11/21 06:36:38;;;;;;;43.13;24.20;;;8.60;99.90;;;;;;5064858;28;20451;-79
2021/11/21 06:39:07;;;;;;;40.93;21.63;;;8.70;99.90;;;;;;5063257;28;20454;-79
2021/11/21 06:41:34;;;;;;;45.03;23.37;;;8.60;99.90;;;;;;5042007;28;20448;-78
2021/11/21 06:44:01;;;;;;;47.70;24.80;;;8.40;99.90;;;;;;5074457;22;20495;-85
2021/11/21 06:46:28;;;;;;;40.03;22.03;;;8.50;99.90;;;;;;5075510;28;20573;-85
2021/11/21 06:48:55;;;;;;;36.93;20.90;;;8.50;99.90;;;;;;5077888;28;20458;-86
2021/11/21 06:51:22;;;;;;;45.93;25.03;;;8.70;99.90;;;;;;5053034;28;20456;-86
2021/11/21 06:53:49;;;;;;;42.10;22.27;;;8.50;99.90;;;;;;5057419;28;21033;-86
2021/11/21 06:56:18;;;;;;;50.57;24.07;;;8.50;99.90;;;;;;5057856;28;20949;-86
2021/11/21 06:58:46;;;;;;;50.40;24.03;;;8.50;99.90;;;;;;5059188;28;20452;-87
2021/11/21 07:01:13;;;;;;;40.43;21.87;;;8.60;99.90;;;;;;5067897;28;20453;-85
2021/11/21 07:03:40;;;;;;;41.73;21.83;;;8.60;99.90;;;;;;5074751;28;20586;-84
2021/11/21 07:06:07;;;;;;;43.43;22.20;;;8.60;99.90;;;;;;5072700;28;20519;-85
2021/11/21 07:08:34;;;;;;;43.57;22.70;;;8.50;99.90;;;;;;5063118;28;20506;-84
2021/11/21 07:11:01;;;;;;;46.50;22.87;;;8.50;99.90;;;;;;5060830;28;20467;-85
2021/11/21 07:13:29;;;;;;;38.63;19.57;;;8.50;99.90;;;;;;5061413;28;20550;-85
2021/11/21 07:15:56;;;;;;;36.07;19.80;;;8.40;99.90;;;;;;5060889;28;20436;-85
2021/11/21 07:18:23;;;;;;;37.77;20.97;;;8.50;99.90;;;;;;5058968;28;20462;-85
2021/11/21 07:20:49;;;;;;;38.17;18.67;;;8.50;99.90;;;;;;5058335;28;20458;-86
2021/11/21 07:23:20;;;;;;;34.10;17.57;;;8.50;99.90;;;;;;5056584;28;20564;-85
2021/11/21 07:25:46;;;;;;;37.37;18.53;;;8.40;99.90;;;;;;5059718;28;20488;-87
2021/11/21 07:28:13;;;;;;;30.93;17.37;;;8.40;99.90;;;;;;5057439;28;20506;-85
2021/11/21 07:30:42;;;;;;;32.60;17.43;;;8.40;99.90;;;;;;5055639;28;20483;-86
2021/11/21 07:33:09;;;;;;;38.20;19.97;;;8.50;99.90;;;;;;5057131;28;20467;-85
2021/11/21 07:35:36;;;;;;;32.40;16.97;;;8.50;99.90;;;;;;5056222;28;20445;-86
2021/11/21 07:38:02;;;;;;;33.07;18.33;;;8.40;99.90;;;;;;5057984;28;20458;-86
2021/11/21 07:40:29;;;;;;;37.23;19.87;;;8.50;99.90;;;;;;5056532;28;20460;-86
2021/11/21 07:42:56;;;;;;;45.83;19.97;;;8.50;99.90;;;;;;5058086;28;20539;-85
2021/11/21 07:45:23;;;;;;;31.87;16.20;;;8.60;99.90;;;;;;5058609;28;20489;-85
2021/11/21 07:47:51;;;;;;;35.90;17.43;;;8.50;99.90;;;;;;5058621;28;20830;-84
2021/11/21 07:50:18;;;;;;;31.60;15.60;;;8.50;99.90;;;;;;5057361;28;20456;-85
2021/11/21 07:52:45;;;;;;;29.50;15.67;;;8.50;99.90;;;;;;5059329;28;20444;-85
2021/11/21 07:55:13;;;;;;;29.47;14.17;;;8.50;99.90;;;;;;5057802;28;20466;-85
2021/11/21 07:57:40;;;;;;;24.93;12.67;;;8.50;99.90;;;;;;5058789;28;20467;-84
2021/11/21 08:00:10;;;;;;;25.23;13.67;;;8.60;99.90;;;;;;5056548;28;20661;-83
2021/11/21 08:02:37;;;;;;;18.87;11.13;;;8.60;99.90;;;;;;5058114;28;20444;-84
2021/11/21 08:05:06;;;;;;;24.63;12.00;;;8.50;99.90;;;;;;5057661;28;20506;-84
2021/11/21 08:07:33;;;;;;;22.20;11.00;;;8.50;99.90;;;;;;5057541;28;20458;-85
2021/11/21 08:10:01;;;;;;;28.10;14.10;;;8.50;99.90;;;;;;5056107;28;20475;-82
2021/11/21 08:12:28;;;;;;;20.37;12.00;;;8.60;99.90;;;;;;5056833;28;20546;-84
2021/11/21 08:14:55;;;;;;;24.70;12.60;;;8.50;99.90;;;;;;5057635;28;20586;-85
2021/11/21 08:17:22;;;;;;;23.83;13.37;;;8.60;99.90;;;;;;5058419;28;20456;-84
2021/11/21 08:19:48;;;;;;;24.77;13.20;;;8.60;99.90;;;;;;5058587;28;20452;-84
2021/11/21 08:22:17;;;;;;;23.97;13.10;;;8.70;99.90;;;;;;5056685;28;20458;-84
2021/11/21 08:24:45;;;;;;;25.03;12.53;;;8.70;99.90;;;;;;5057703;28;20468;-84
2021/11/21 08:27:13;;;;;;;24.20;14.37;;;8.80;99.90;;;;;;5058345;28;20448;-85
2021/11/21 08:29:40;;;;;;;25.60;13.70;;;8.80;99.90;;;;;;5057973;28;21053;-84
2021/11/21 08:32:08;;;;;;;26.73;15.13;;;8.80;99.90;;;;;;5057264;28;20451;-83
2021/11/21 08:34:35;;;;;;;23.80;13.07;;;8.90;99.90;;;;;;5057298;28;20494;-84
2021/11/21 08:37:02;;;;;;;27.83;15.83;;;8.90;99.90;;;;;;5058135;28;20785;-84
2021/11/21 08:39:30;;;;;;;29.90;16.70;;;8.90;99.90;;;;;;5057582;28;20828;-84
2021/11/21 08:41:57;;;;;;;22.73;13.20;;;9.00;99.90;;;;;;5056843;28;20443;-84
2021/11/21 08:44:25;;;;;;;25.80;14.10;;;9.00;99.90;;;;;;5056918;28;20479;-86
2021/11/21 08:46:52;;;;;;;24.53;14.13;;;9.00;99.90;;;;;;5053871;28;20485;-86
2021/11/21 08:49:19;;;;;;;22.60;14.77;;;9.10;99.90;;;;;;5057942;28;20840;-85
2021/11/21 08:51:48;;;;;;;26.10;15.00;;;9.10;99.90;;;;;;5055639;28;20539;-84
2021/11/21 08:54:16;;;;;;;24.10;13.50;;;9.20;99.90;;;;;;5050728;28;20471;-86
2021/11/21 08:56:45;;;;;;;24.60;15.77;;;9.30;99.90;;;;;;5053235;28;20457;-87
2021/11/21 08:59:12;;;;;;;28.20;15.83;;;9.40;99.90;;;;;;5058236;28;20602;-88
2021/11/21 09:01:39;;;;;;;26.10;14.53;;;9.40;99.90;;;;;;5058099;28;20953;-85
2021/11/21 09:04:06;;;;;;;25.37;15.73;;;9.50;99.90;;;;;;5058975;28;20468;-88
2021/11/21 09:06:33;;;;;;;29.70;17.80;;;9.60;99.90;;;;;;5052664;28;20486;-86
2021/11/21 09:09:00;;;;;;;27.93;15.20;;;9.80;99.90;;;;;;5055028;28;20534;-86
2021/11/21 09:11:27;;;;;;;27.20;15.00;;;9.90;99.90;;;;;;5057169;28;20821;-86
2021/11/21 09:13:56;;;;;;;21.27;14.57;;;10.00;99.90;;;;;;5058095;28;20519;-86
2021/11/21 09:16:23;;;;;;;25.73;14.60;;;10.10;99.90;;;;;;5057616;28;20528;-85
2021/11/21 09:18:50;;;;;;;24.80;14.40;;;10.10;99.90;;;;;;5056951;28;20452;-83
2021/11/21 09:21:17;;;;;;;24.87;15.40;;;10.20;99.90;;;;;;5053741;28;20446;-85
2021/11/21 09:23:44;;;;;;;25.80;13.63;;;10.10;99.90;;;;;;5054554;28;20474;-81
2021/11/21 09:26:10;;;;;;;22.77;13.20;;;10.10;99.90;;;;;;5056451;28;20493;-84
2021/11/21 09:28:37;;;;;;;24.60;14.63;;;10.10;99.90;;;;;;5060040;28;20457;-84
2021/11/21 09:31:07;;;;;;;28.57;15.60;;;10.10;99.90;;;;;;5058918;28;20449;-80
2021/11/21 09:33:34;;;;;;;30.97;16.87;;;10.20;99.90;;;;;;5056620;28;20837;-80
2021/11/21 09:36:01;;;;;;;25.10;15.60;;;10.10;99.90;;;;;;5058105;28;21025;-82
2021/11/21 09:38:28;;;;;;;26.67;15.50;;;10.20;99.90;;;;;;5057935;28;20517;-84
2021/11/21 09:40:56;;;;;;;26.47;16.87;;;10.30;99.90;;;;;;5061386;28;20447;-82
2021/11/21 09:43:23;;;;;;;24.60;15.40;;;10.20;99.90;;;;;;5063197;28;20482;-84
2021/11/21 09:45:50;;;;;;;26.20;15.53;;;10.20;99.90;;;;;;5062828;28;20483;-84
2021/11/21 09:48:19;;;;;;;28.77;17.63;;;10.30;99.90;;;;;;5060344;28;20460;-84
2021/11/21 09:50:46;;;;;;;25.87;15.70;;;10.30;99.90;;;;;;5057294;28;20461;-81
2021/11/21 09:53:15;;;;;;;25.63;16.03;;;10.30;99.90;;;;;;5055198;28;20464;-83
2021/11/21 09:55:42;;;;;;;26.30;15.50;;;10.20;99.90;;;;;;5056398;28;20451;-82
2021/11/21 09:58:09;;;;;;;27.20;16.40;;;10.30;99.90;;;;;;5055009;28;20437;-81
2021/11/21 10:00:36;;;;;;;25.50;16.20;;;10.30;99.90;;;;;;5065202;28;21052;-81
2021/11/21 10:03:06;;;;;;;29.07;17.57;;;10.20;99.90;;;;;;5071204;28;20441;-79
2021/11/21 10:05:37;;;;;;;29.87;17.17;;;10.20;99.90;;;;;;5065202;28;20542;-81
2021/11/21 10:08:06;;;;;;;30.70;18.37;;;10.30;99.90;;;;;;5056831;28;20451;-81
2021/11/21 10:10:39;;;;;;;28.27;15.60;;;10.40;99.90;;;;;;5056853;28;20489;-81
2021/11/21 10:13:21;;;;;;;27.63;15.67;;;10.60;99.90;;;;;;5056232;28;20474;-82
2021/11/21 10:15:48;;;;;;;27.03;16.50;;;10.70;99.90;;;;;;5054183;28;20452;-81
2021/11/21 10:18:14;;;;;;;29.60;17.33;;;10.80;99.90;;;;;;5055127;28;20457;-81
2021/11/21 10:20:43;;;;;;;23.83;14.67;;;10.90;99.90;;;;;;5055499;28;20451;-81
2021/11/21 10:23:11;;;;;;;25.03;14.90;;;10.90;99.90;;;;;;5056537;28;20475;-81
2021/11/21 10:25:48;;;;;;;25.13;15.10;;;10.90;99.90;;;;;;5055523;28;20830;-81
2021/11/21 10:28:18;;;;;;;28.70;15.17;;;10.90;99.90;;;;;;5055600;28;20509;-81
2021/11/21 10:31:11;;;;;;;24.70;15.10;;;10.90;99.90;;;;;;5055740;28;20454;-81
2021/11/21 10:33:42;;;;;;;26.70;15.07;;;10.80;99.90;;;;;;5058441;28;20528;-81
2021/11/21 10:36:12;;;;;;;25.67;15.40;;;10.80;99.90;;;;;;5060062;28;20489;-81
2021/11/21 10:38:44;;;;;;;26.73;14.90;;;10.70;99.90;;;;;;5060066;28;20446;-81
2021/11/21 10:41:15;;;;;;;24.10;13.57;;;10.50;99.90;;;;;;5059421;28;20452;-81
2021/11/21 10:43:45;;;;;;;28.63;14.47;;;10.50;99.90;;;;;;5059371;28;21021;-81
2021/11/21 10:46:29;;;;;;;30.13;14.50;;;10.60;99.90;;;;;;5059905;28;20496;-81
2021/11/21 10:49:11;;;;;;;24.43;14.10;;;10.60;99.90;;;;;;5059696;28;20454;-81
2021/11/21 10:51:40;;;;;;;24.03;14.00;;;10.60;99.90;;;;;;5058547;28;20474;-81
2021/11/21 10:54:21;;;;;;;25.30;14.40;;;10.50;99.90;;;;;;5059737;28;20853;-81
2021/11/21 10:56:49;;;;;;;25.53;13.70;;;10.60;99.90;;;;;;5059587;28;20450;-81
2021/11/21 10:59:31;;;;;;;21.00;10.93;;;10.70;99.90;;;;;;5058385;28;20469;-81
2021/11/21 11:02:08;;;;;;;19.00;8.83;;;10.60;99.90;;;;;;5057494;28;20458;-81
2021/11/21 11:04:34;;;;;;;19.33;9.43;;;10.50;99.90;;;;;;5057606;28;20524;-80
2021/11/21 11:07:16;;;;;;;17.03;9.20;;;10.50;99.90;;;;;;5057388;28;20489;-81
2021/11/21 11:09:44;;;;;;;16.80;8.30;;;10.60;99.90;;;;;;5054952;28;20458;-81
2021/11/21 11:12:11;;;;;;;18.60;8.33;;;10.70;99.90;;;;;;5057388;28;20453;-81
2021/11/21 11:14:38;;;;;;;16.97;8.90;;;10.80;99.90;;;;;;5058374;28;20469;-81
2021/11/21 11:17:05;;;;;;;18.97;8.80;;;10.80;99.90;;;;;;5057357;28;20951;-79
2021/11/21 11:19:33;;;;;;;18.83;7.93;;;11.00;99.90;;;;;;5058290;28;20454;-82
2021/11/21 11:22:01;;;;;;;13.83;8.00;;;10.90;99.90;;;;;;5058907;28;20458;-82
2021/11/21 11:24:29;;;;;;;18.73;9.10;;;11.00;99.90;;;;;;5058177;28;20853;-81
2021/11/21 11:27:06;;;;;;;19.27;9.07;;;11.10;99.90;;;;;;5056445;28;21015;-82
2021/11/21 11:29:38;;;;;;;18.60;7.70;;;11.20;99.90;;;;;;5057162;28;20454;-80
2021/11/21 11:32:28;;;;;;;14.13;7.43;;;11.10;99.90;;;;;;5056749;28;20452;-82
2021/11/21 11:34:57;;;;;;;19.10;7.03;;;11.00;99.90;;;;;;5051924;28;20474;-81
2021/11/21 11:37:47;;;;;;;17.00;7.73;;;11.00;99.90;;;;;;5057307;28;20515;-81
2021/11/21 11:40:49;;;;;;;16.60;7.50;;;11.00;99.90;;;;;;5057070;28;20490;-81
2021/11/21 11:43:39;;;;;;;15.53;7.13;;;11.10;99.90;;;;;;5056121;28;20487;-82
2021/11/21 11:46:23;;;;;;;15.73;6.30;;;11.30;99.90;;;;;;5056807;28;21019;-81
2021/11/21 11:48:51;;;;;;;12.30;6.23;;;11.40;99.90;;;;;;5055921;28;20452;-81
2021/11/21 11:51:22;;;;;;;19.10;6.37;;;11.30;99.90;;;;;;5058625;28;20850;-82
2021/11/21 11:53:51;;;;;;;12.90;5.93;;;11.40;99.90;;;;;;5056469;28;20562;-81
2021/11/21 11:56:24;;;;;;;18.50;7.80;;;11.50;99.90;;;;;;5056715;28;20455;-80
2021/11/21 11:58:54;;;;;;;13.80;5.87;;;11.50;99.90;;;;;;5055967;28;20451;-82
2021/11/21 12:01:52;;;;;;;14.00;5.77;;;11.40;99.90;;;;;;5044731;28;20459;-81
2021/11/21 12:04:48;;;;;;;12.73;5.70;;;11.40;99.90;;;;;;5056451;28;20544;-81
2021/11/21 12:07:25;;;;;;;13.90;5.53;;;11.40;99.90;;;;;;5048605;28;20498;-82
2021/11/21 12:09:59;;;;;;;15.23;6.30;;;11.50;99.90;;;;;;5057000;28;20489;-81
2021/11/21 12:12:52;;;;;;;11.87;4.10;;;11.60;99.90;;;;;;5055717;28;20453;-82
2021/11/21 12:15:34;;;;;;;17.60;5.50;;;11.70;99.90;;;;;;5057731;28;20455;-82
2021/11/21 12:18:02;;;;;;;11.37;4.20;;;11.80;99.90;;;;;;5055666;28;20546;-82
2021/11/21 12:20:46;;;;;;;15.70;4.80;;;11.90;99.90;;;;;;5055965;28;20463;-82
2021/11/21 12:23:15;;;;;;;8.80;3.57;;;11.80;99.90;;;;;;5055183;28;20477;-81
2021/11/21 12:25:43;;;;;;;11.57;3.60;;;11.90;99.90;;;;;;5067246;28;20442;-82
2021/11/21 12:28:12;;;;;;;12.70;4.07;;;12.00;99.90;;;;;;5056939;28;20950;-82
2021/11/21 12:30:39;;;;;;;15.67;3.00;;;11.80;99.90;;;;;;5054505;28;21082;-82
2021/11/21 12:33:19;;;;;;;11.17;3.03;;;11.80;99.90;;;;;;5055694;28;21022;-83
2021/11/21 12:35:50;;;;;;;9.17;2.87;;;12.50;99.90;;;;;;5071974;28;20512;-83
2021/11/21 12:38:35;;;;;;;11.83;2.70;;;13.40;99.90;;;;;;5074740;28;20444;-82
2021/11/21 12:41:07;;;;;;;10.97;2.80;;;13.90;99.90;;;;;;5070595;28;20458;-84
2021/11/21 12:43:36;;;;;;;13.23;2.63;;;14.20;99.90;;;;;;5098477;22;20500;-81